createdAt,value
2019-03-11T00:03:37.466Z,6.80
2019-03-11T00:08:39.000Z,2.22
2019-03-11T00:13:42.006Z,7.60
2019-03-11T00:18:43.864Z,7.95
2019-03-11T00:23:45.341Z,5.97
2019-03-11T00:28:46.680Z,8.43
2019-03-11T00:33:48.110Z,6.92
2019-03-11T00:38:51.874Z,4.80
2019-03-11T00:43:53.317Z,9.80
2019-03-11T00:49:00.006Z,4.90
2019-03-11T00:54:01.702Z,8.85
2019-03-11T00:59:04.322Z,5.33
2019-03-11T01:04:05.995Z,10.08
2019-03-11T01:09:07.403Z,6.62
2019-03-11T01:14:09.037Z,4.60
2019-03-11T01:19:10.424Z,6.47
2019-03-11T01:24:11.798Z,7.42
2019-03-11T01:29:13.073Z,7.15
2019-03-11T01:34:14.400Z,9.98
2019-03-11T01:39:15.718Z,13.32
2019-03-11T01:44:17.138Z,6.42
2019-03-11T01:49:18.645Z,5.37
2019-03-11T01:54:20.082Z,7.70
2019-03-11T01:59:21.496Z,7.75
2019-03-11T02:04:22.923Z,8.70
2019-03-11T02:09:24.317Z,8.95
2019-03-11T02:14:44.083Z,10.63
2019-03-11T02:19:47.584Z,25.65
2019-03-11T02:24:48.895Z,26.55
2019-03-11T02:29:50.363Z,12.35
2019-03-11T02:34:53.587Z,12.82
2019-03-11T02:39:56.635Z,8.88
2019-03-11T02:45:02.526Z,12.50
2019-03-11T02:50:09.259Z,22.93
2019-03-11T02:55:12.693Z,12.78
2019-03-11T03:00:18.499Z,10.43
2019-03-11T03:05:21.834Z,17.05
2019-03-11T03:10:23.358Z,11.15
2019-03-11T03:15:25.189Z,10.40
2019-03-11T03:20:26.523Z,11.10
2019-03-11T03:25:33.736Z,8.53
2019-03-11T03:30:31.432Z,9.10
2019-03-11T03:35:34.069Z,12.43
2019-03-11T03:40:35.572Z,13.38
2019-03-11T03:45:40.021Z,14.80
2019-03-11T03:50:44.795Z,11.38
2019-03-11T03:55:46.332Z,8.85
2019-03-11T04:00:47.898Z,11.73
2019-03-11T04:05:50.722Z,9.50
2019-03-11T04:10:52.261Z,8.15
2019-03-11T04:15:54.137Z,14.35
2019-03-11T04:20:57.656Z,8.80
2019-03-11T04:26:01.193Z,10.65
2019-03-11T04:31:02.905Z,13.15
2019-03-11T04:36:04.899Z,10.53
2019-03-11T04:41:07.606Z,10.08
2019-03-11T04:46:09.689Z,6.42
2019-03-11T04:51:13.469Z,4.08
2019-03-11T04:56:33.313Z,4.87
2019-03-11T05:01:35.792Z,5.08
2019-03-11T05:06:38.896Z,7.30
2019-03-11T05:11:41.613Z,6.83
2019-03-11T05:16:47.621Z,10.95
2019-03-11T05:21:49.120Z,6.37
2019-03-11T05:26:51.155Z,8.50
2019-03-11T05:31:52.601Z,6.58
2019-03-11T05:36:55.149Z,5.72
2019-03-11T05:41:56.588Z,10.85
2019-03-11T05:47:01.534Z,5.42
2019-03-11T05:52:04.623Z,12.55
2019-03-11T05:57:06.037Z,10.78
2019-03-11T06:02:09.336Z,8.83
2019-03-11T06:07:10.872Z,12.58
2019-03-11T06:12:18.911Z,9.53
2019-03-11T06:17:20.426Z,10.40
2019-03-11T06:22:24.400Z,14.80
2019-03-11T06:27:27.033Z,12.88
2019-03-11T06:32:28.349Z,11.10
2019-03-11T06:37:30.095Z,14.20
2019-03-11T06:42:33.617Z,5.17
2019-03-11T06:47:35.055Z,11.78
2019-03-11T06:52:36.649Z,10.18
2019-03-11T06:57:39.993Z,13.00
2019-03-11T07:02:41.383Z,12.03
2019-03-11T07:07:42.989Z,14.07
2019-03-11T07:12:47.121Z,16.40
2019-03-11T07:17:48.622Z,15.43
2019-03-11T07:22:50.066Z,12.53
2019-03-11T07:27:51.448Z,7.92
2019-03-11T07:32:53.269Z,8.38
2019-03-11T07:37:54.631Z,9.33
2019-03-11T07:42:56.009Z,17.32
2019-03-11T07:47:57.339Z,9.98
2019-03-11T07:52:58.857Z,11.05
2019-03-11T07:58:00.307Z,11.75
2019-03-11T08:03:01.761Z,15.95
2019-03-11T08:08:05.132Z,10.25
2019-03-11T08:13:10.642Z,9.05
2019-03-11T08:18:11.981Z,12.03
2019-03-11T08:23:15.789Z,9.85
2019-03-11T08:28:18.571Z,8.05
2019-03-11T08:33:23.287Z,19.32
2019-03-11T08:38:28.198Z,9.35
2019-03-11T08:43:29.920Z,16.17
2019-03-11T08:48:31.230Z,13.58
2019-03-11T08:53:32.540Z,13.90
2019-03-11T08:58:34.080Z,12.73
2019-03-11T09:03:35.381Z,15.13
2019-03-11T09:08:36.833Z,14.40
2019-03-11T09:13:38.513Z,12.33
2019-03-11T09:18:41.740Z,8.20
2019-03-11T09:23:43.480Z,15.58
2019-03-11T09:28:45.025Z,16.27
2019-03-11T09:33:46.341Z,15.13
2019-03-11T09:38:47.890Z,14.90
2019-03-11T09:43:49.323Z,14.60
2019-03-11T09:48:51.034Z,8.20
2019-03-11T09:53:54.069Z,9.68
2019-03-11T09:58:57.901Z,9.43
2019-03-11T10:03:59.849Z,9.90
2019-03-11T10:09:01.337Z,14.18
2019-03-11T10:14:03.027Z,12.47
2019-03-11T10:19:06.209Z,7.53
2019-03-11T10:24:07.544Z,13.58
2019-03-11T10:29:08.939Z,9.03
2019-03-11T10:34:10.418Z,12.68
2019-03-11T10:39:32.207Z,11.53
2019-03-11T10:44:33.645Z,11.38
2019-03-11T10:49:34.971Z,8.85
2019-03-11T10:54:39.771Z,13.03
2019-03-11T10:59:43.223Z,14.05
2019-03-11T11:04:44.745Z,13.08
2019-03-11T11:09:46.246Z,8.70
2019-03-11T11:14:47.885Z,12.47
2019-03-11T11:20:02.771Z,9.48
2019-03-11T11:25:02.589Z,10.03
2019-03-11T11:30:18.408Z,8.45
2019-03-11T11:35:21.296Z,8.85
2019-03-11T11:40:30.535Z,7.37
2019-03-11T11:45:33.987Z,8.23
2019-03-11T11:50:35.307Z,6.65
2019-03-11T11:55:36.898Z,9.65
2019-03-11T12:00:40.636Z,6.78
2019-03-11T12:05:42.195Z,10.23
2019-03-11T12:16:09.172Z,6.55
2019-03-11T12:21:14.840Z,8.78
2019-03-11T12:26:18.549Z,10.28
2019-03-11T12:31:22.802Z,13.75
2019-03-11T12:36:24.257Z,11.20
2019-03-11T12:41:26.136Z,10.20
2019-03-11T12:46:27.662Z,15.18
2019-03-11T12:51:30.262Z,7.67
2019-03-11T12:56:33.531Z,10.60
2019-03-11T13:01:34.885Z,9.18
2019-03-11T13:06:37.420Z,12.30
2019-03-11T13:11:38.773Z,9.93
2019-03-11T13:16:40.120Z,7.08
2019-03-11T13:21:42.085Z,15.10
2019-03-11T13:26:43.577Z,9.65
2019-03-11T13:31:45.315Z,7.30
2019-03-11T13:36:46.745Z,11.73
2019-03-11T13:41:48.281Z,17.27
2019-03-11T13:46:50.109Z,11.55
2019-03-11T13:51:53.390Z,13.13
2019-03-11T13:56:54.924Z,7.85
2019-03-11T14:07:18.392Z,8.10
2019-03-11T14:12:19.783Z,11.85
2019-03-11T14:17:21.624Z,10.72
2019-03-11T14:22:23.085Z,17.02
2019-03-11T14:27:25.314Z,11.88
2019-03-11T14:32:31.354Z,10.53
2019-03-11T14:37:32.802Z,12.07
2019-03-11T14:42:36.986Z,8.63
2019-03-11T14:47:38.547Z,6.85
2019-03-11T14:52:40.690Z,9.43
2019-03-11T14:57:45.292Z,6.17
2019-03-11T15:02:52.539Z,9.33
2019-03-11T15:07:55.313Z,11.95
2019-03-11T15:12:57.402Z,8.33
2019-03-11T15:18:03.725Z,11.08
2019-03-11T15:23:20.304Z,8.28
2019-03-11T15:28:18.083Z,8.78
2019-03-11T15:33:19.927Z,12.95
2019-03-11T15:38:21.990Z,8.50
2019-03-11T15:43:23.439Z,11.68
2019-03-11T15:48:28.951Z,9.45
2019-03-11T15:53:30.600Z,15.88
2019-03-11T15:58:32.063Z,11.18
2019-03-11T16:03:36.487Z,10.53
2019-03-11T16:08:37.459Z,18.42
2019-03-11T16:13:41.262Z,9.98
2019-03-11T16:18:44.733Z,13.10
2019-03-11T16:23:47.642Z,15.70
2019-03-11T16:28:50.546Z,11.10
2019-03-11T16:33:52.326Z,12.58
2019-03-11T16:38:58.567Z,10.82
2019-03-11T16:44:02.045Z,7.75
2019-03-11T16:49:03.702Z,5.53
2019-03-11T16:54:07.249Z,7.92
2019-03-11T16:59:12.537Z,10.10
2019-03-11T17:04:16.084Z,11.20
2019-03-11T17:09:18.388Z,14.35
2019-03-11T17:14:22.756Z,7.97
2019-03-11T17:19:24.416Z,12.78
2019-03-11T17:24:30.865Z,11.22
2019-03-11T17:29:35.214Z,11.50
2019-03-11T17:34:38.564Z,8.48
2019-03-11T17:39:39.994Z,13.13
2019-03-11T17:44:41.252Z,9.63
2019-03-11T17:50:02.883Z,10.55
2019-03-11T17:55:08.811Z,6.78
2019-03-11T18:00:19.247Z,9.50
2019-03-11T18:05:23.875Z,9.25
2019-03-11T18:10:27.059Z,14.13
2019-03-11T18:15:30.395Z,10.80
2019-03-11T18:20:33.891Z,11.65
2019-03-11T18:25:35.563Z,5.42
2019-03-11T18:30:38.067Z,11.57
2019-03-11T18:35:39.573Z,9.70
2019-03-11T18:40:41.313Z,8.83
2019-03-11T18:45:45.071Z,12.33
2019-03-11T18:50:46.490Z,13.53
2019-03-11T18:55:48.239Z,13.88
2019-03-11T19:00:49.786Z,10.90
2019-03-11T19:05:51.779Z,12.25
2019-03-11T19:16:14.845Z,10.43
2019-03-11T19:21:17.104Z,11.83
2019-03-11T19:26:18.872Z,8.15
2019-03-11T19:31:22.023Z,8.18
2019-03-11T19:36:25.452Z,14.68
2019-03-11T19:41:28.631Z,8.23
2019-03-11T19:46:30.011Z,17.30
2019-03-11T19:51:33.749Z,14.07
2019-03-11T19:56:35.394Z,13.98
2019-03-11T20:01:37.915Z,13.38
2019-03-11T20:06:39.577Z,14.65
2019-03-11T20:11:45.937Z,20.70
2019-03-11T20:16:47.940Z,14.55
2019-03-11T20:21:50.811Z,19.32
2019-03-11T20:26:52.521Z,28.77
2019-03-11T20:31:54.028Z,19.70
2019-03-11T20:36:55.834Z,24.65
2019-03-11T20:41:59.308Z,23.45
2019-03-11T20:47:03.184Z,23.77
2019-03-11T20:52:28.441Z,22.98
2019-03-11T20:57:29.051Z,18.05
2019-03-11T21:02:32.421Z,20.37
2019-03-11T21:07:35.345Z,12.23
2019-03-11T21:12:38.795Z,14.50
2019-03-11T21:17:40.387Z,16.07
2019-03-11T21:22:45.919Z,11.63
2019-03-11T21:27:51.195Z,14.80
2019-03-11T21:32:52.868Z,19.48
2019-03-11T21:37:56.190Z,18.05
2019-03-11T21:42:57.996Z,14.87
2019-03-11T21:47:59.448Z,17.23
2019-03-11T21:53:01.165Z,13.78
2019-03-11T21:58:12.506Z,14.23
2019-03-11T22:03:07.044Z,18.23
2019-03-11T22:08:15.920Z,12.15
2019-03-11T22:13:17.221Z,17.17
2019-03-11T22:18:19.060Z,20.57
2019-03-11T22:23:20.655Z,22.13
2019-03-11T22:28:23.271Z,21.75
2019-03-11T22:33:24.707Z,14.80
2019-03-11T22:38:27.927Z,19.17
2019-03-11T22:43:34.347Z,19.40
2019-03-11T22:48:35.960Z,18.98
2019-03-11T22:53:37.446Z,21.23
2019-03-11T22:58:39.117Z,27.37
2019-03-11T23:03:49.779Z,16.93
2019-03-11T23:08:46.032Z,24.50
2019-03-11T23:13:47.389Z,20.35
2019-03-11T23:18:48.865Z,24.15
2019-03-11T23:23:52.604Z,22.67
2019-03-11T23:28:54.503Z,18.92
2019-03-11T23:33:57.489Z,30.02
2019-03-11T23:38:58.976Z,22.30
2019-03-11T23:44:02.313Z,24.75
2019-03-11T23:49:03.966Z,24.02
2019-03-11T23:54:06.047Z,22.93
2019-03-11T23:59:10.506Z,19.55
